Time;durP1;ratioP1;P1;durP2;ratioP2;P2;SDS_P1;SDS_P2;PMS_P1;PMS_P2;Temp;Humidity;BMP_temperature;BMP_pressure;BME280_temperature;BME280_humidity;BME280_pressure;Samples;Min_cycle;Max_cycle;Signal;HPM_P1;HPM_P2
2022/02/20 00:01:55;;;;;;;1.50;1.10;;;;;;;2.60;92.63;100250.22;5022908;28;20212;-73
2022/02/20 00:04:22;;;;;;;3.80;1.10;;;;;;;2.60;93.34;100245.06;5020202;28;20205;-73
2022/02/20 00:06:48;;;;;;;4.87;1.20;;;;;;;2.59;93.54;100245.06;5020682;28;20197;-74
2022/02/20 00:09:15;;;;;;;5.00;1.60;;;;;;;2.57;92.61;100241.59;5015552;28;20211;-74
2022/02/20 00:11:41;;;;;;;2.87;1.60;;;;;;;2.61;90.90;100228.75;5021933;28;20227;-74
2022/02/20 00:14:08;;;;;;;6.37;1.60;;;;;;;2.61;91.58;100230.47;5019015;28;20290;-74
2022/02/20 00:16:35;;;;;;;2.93;1.10;;;;;;;2.59;91.74;100227.03;5022646;28;20223;-74
2022/02/20 00:19:03;;;;;;;3.33;1.30;;;;;;;2.56;91.97;100221.88;5022519;28;20197;-75
2022/02/20 00:21:29;;;;;;;6.43;1.50;;;;;;;2.55;92.33;100215.00;5022544;28;20223;-74
2022/02/20 00:23:55;;;;;;;3.37;1.30;;;;;;;2.53;92.21;100209.84;5019071;28;20846;-75
2022/02/20 00:26:22;;;;;;;5.13;1.37;;;;;;;2.52;92.51;100203.00;5015679;28;20204;-75
2022/02/20 00:28:48;;;;;;;4.23;1.20;;;;;;;2.56;91.80;100201.28;5022069;28;20204;-73
2022/02/20 00:31:15;;;;;;;3.20;1.13;;;;;;;2.55;92.66;100197.88;5014746;28;20303;-72
2022/02/20 00:33:41;;;;;;;5.47;1.47;;;;;;;2.54;94.62;100197.88;5017263;28;20574;-74
2022/02/20 00:36:09;;;;;;;1.40;0.90;;;;;;;2.51;96.29;100185.00;5016048;28;20689;-73
2022/02/20 00:38:36;;;;;;;2.07;1.07;;;;;;;2.49;98.44;100174.69;5021206;28;20235;-73
2022/02/20 00:41:02;;;;;;;1.67;1.00;;;;;;;2.42;99.70;100180.69;5017488;28;20232;-74
2022/02/20 00:43:29;;;;;;;2.10;0.90;;;;;;;2.41;100.00;100177.28;5025835;28;20202;-74
2022/02/20 00:45:55;;;;;;;1.50;0.90;;;;;;;2.40;99.80;100166.97;5017584;28;20223;-75
2022/02/20 00:48:21;;;;;;;4.47;1.10;;;;;;;2.38;100.00;100166.97;5020656;28;20291;-75
2022/02/20 00:50:48;;;;;;;4.43;1.00;;;;;;;2.36;100.00;100168.69;5016215;28;20315;-74
2022/02/20 00:53:17;;;;;;;1.90;1.00;;;;;;;2.37;100.00;100156.69;5022526;28;20200;-72
2022/02/20 00:55:43;;;;;;;1.63;1.00;;;;;;;2.35;100.00;100151.53;5019436;28;20203;-75
2022/02/20 00:58:10;;;;;;;3.97;1.00;;;;;;;2.29;100.00;100143.81;5022338;28;20209;-74
2022/02/20 01:00:37;;;;;;;4.97;1.00;;;;;;;2.26;100.00;100146.41;5016151;28;20225;-74
2022/02/20 01:03:06;;;;;;;2.37;0.80;;;;;;;2.19;100.00;100135.25;5020418;28;20295;-73
2022/02/20 01:05:33;;;;;;;2.07;0.90;;;;;;;2.14;100.00;100133.53;5020858;28;20294;-73
2022/02/20 01:07:59;;;;;;;2.67;1.00;;;;;;;2.04;100.00;100127.50;5015673;28;20288;-73
2022/02/20 01:10:27;;;;;;;4.57;1.37;;;;;;;2.02;100.00;100112.09;5020561;28;20219;-76
2022/02/20 01:12:53;;;;;;;1.13;0.80;;;;;;;1.99;100.00;100104.38;5022101;28;20838;-73
2022/02/20 01:15:22;;;;;;;2.07;0.80;;;;;;;1.98;100.00;100102.66;5021259;28;20225;-72
2022/02/20 01:17:49;;;;;;;2.70;1.07;;;;;;;1.91;100.00;100088.09;5014732;28;20214;-73
2022/02/20 01:20:15;;;;;;;2.33;0.83;;;;;;;1.90;100.00;100078.66;5017556;28;20232;-73
2022/02/20 01:22:41;;;;;;;2.97;1.00;;;;;;;1.88;100.00;100076.09;5019142;28;20278;-73
2022/02/20 01:25:08;;;;;;;2.57;1.10;;;;;;;1.85;100.00;100065.81;5016538;28;20227;-74
2022/02/20 01:27:37;;;;;;;1.03;0.80;;;;;;;1.86;100.00;100066.66;5017751;28;20960;-73
2022/02/20 01:30:04;;;;;;;2.00;0.90;;;;;;;1.84;100.00;100065.78;5021226;28;20223;-75
2022/02/20 01:32:31;;;;;;;3.00;1.00;;;;;;;1.79;100.00;100057.22;5014104;28;20209;-74
2022/02/20 01:34:58;;;;;;;1.70;1.03;;;;;;;1.80;100.00;100056.38;5022451;28;20561;-73
2022/02/20 01:37:24;;;;;;;3.70;1.03;;;;;;;1.77;100.00;100046.94;5015096;28;20759;-73
2022/02/20 01:39:51;;;;;;;3.23;0.93;;;;;;;1.78;100.00;100040.94;5022734;28;20226;-74
2022/02/20 01:42:22;;;;;;;5.27;1.00;;;;;;;1.76;100.00;100028.94;5018414;28;20212;-73
2022/02/20 01:44:50;;;;;;;2.50;0.97;;;;;;;1.73;100.00;100024.66;5022605;28;20208;-73
2022/02/20 01:47:16;;;;;;;1.27;0.80;;;;;;;1.75;100.00;100014.38;5022979;28;20211;-76
2022/02/20 01:49:44;;;;;;;6.03;0.93;;;;;;;1.76;100.00;100016.97;5023687;28;20590;-74
2022/02/20 01:52:11;;;;;;;4.83;0.93;;;;;;;1.73;100.00;100006.69;5023755;28;20197;-73
2022/02/20 01:54:38;;;;;;;3.17;1.20;;;;;;;1.69;100.00;99998.09;5028446;28;20219;-73
2022/02/20 01:57:05;;;;;;;2.07;0.90;;;;;;;1.66;100.00;99992.97;5015417;28;20232;-74
2022/02/20 02:00:06;;;;;;;1.00;0.93;;;;;;;1.64;100.00;99981.81;5012323;28;20228;-73
2022/02/20 02:02:49;;;;;;;2.87;1.10;;;;;;;1.61;100.00;99975.84;5025291;28;20609;-73
2022/02/20 02:05:36;;;;;;;2.03;1.03;;;;;;;1.60;100.00;99962.13;5022063;28;21572;-73
2022/02/20 02:08:05;;;;;;;4.50;1.00;;;;;;;1.56;100.00;99954.41;5022713;28;20608;-76
2022/02/20 02:10:46;;;;;;;2.20;1.10;;;;;;;1.55;100.00;99951.00;5017491;28;20227;-73
2022/02/20 02:13:28;;;;;;;5.27;1.20;;;;;;;1.53;100.00;99937.31;5020631;28;20304;-75
2022/02/20 02:16:21;;;;;;;3.47;1.40;;;;;;;1.52;100.00;99933.84;5021202;28;20219;-73
2022/02/20 02:19:03;;;;;;;4.37;1.40;;;;;;;1.52;100.00;99928.72;5022000;28;20710;-74
2022/02/20 02:22:00;;;;;;;2.40;1.23;;;;;;;1.54;100.00;99921.00;5024339;28;20204;-74
2022/02/20 02:24:47;;;;;;;4.30;1.20;;;;;;;1.50;100.00;99915.03;5030206;28;20211;-74
2022/02/20 02:27:32;;;;;;;2.87;0.80;;;;;;;1.51;100.00;99913.28;5019872;28;20214;-73
2022/02/20 02:30:12;;;;;;;2.10;0.93;;;;;;;1.52;100.00;99907.31;5025178;28;20223;-74
2022/02/20 02:32:39;;;;;;;4.10;1.07;;;;;;;1.52;100.00;99908.16;5023361;28;20299;-74
2022/02/20 02:35:06;;;;;;;2.13;1.27;;;;;;;1.53;100.00;99898.75;5021424;28;20210;-73
2022/02/20 02:37:34;;;;;;;4.20;1.20;;;;;;;1.51;100.00;99896.19;5023844;28;20228;-74
2022/02/20 02:40:01;;;;;;;3.80;0.97;;;;;;;1.47;100.00;99884.19;5024929;28;20211;-75
2022/02/20 02:42:27;;;;;;;3.73;1.40;;;;;;;1.49;100.00;99892.72;5019613;28;20396;-74
2022/02/20 02:44:54;;;;;;;2.00;1.27;;;;;;;1.47;100.00;99886.75;5020368;28;20692;-72
2022/02/20 02:47:21;;;;;;;4.80;1.03;;;;;;;1.48;100.00;99879.91;5018184;28;20791;-74
2022/02/20 02:49:47;;;;;;;1.87;1.13;;;;;;;1.45;100.00;99878.19;5023170;28;20231;-75
2022/02/20 02:52:14;;;;;;;3.63;1.00;;;;;;;1.46;100.00;99868.75;5020503;28;20203;-74
2022/02/20 02:54:43;;;;;;;3.33;1.40;;;;;;;1.46;100.00;99866.19;5021419;28;20283;-73
2022/02/20 02:57:09;;;;;;;2.50;1.00;;;;;;;1.43;100.00;99861.94;5021791;28;20254;-73
2022/02/20 02:59:36;;;;;;;2.13;1.03;;;;;;;1.44;100.00;99855.94;5021968;28;20196;-73
2022/02/20 03:02:04;;;;;;;8.50;1.20;;;;;;;1.43;100.00;99849.09;5018818;28;20798;-74
2022/02/20 03:04:32;;;;;;;3.80;1.20;;;;;;;1.41;100.00;99847.38;5020377;28;20243;-73
2022/02/20 03:06:58;;;;;;;1.73;1.30;;;;;;;1.40;100.00;99836.25;5019784;28;20207;-74
2022/02/20 03:09:26;;;;;;;2.83;1.13;;;;;;;1.38;100.00;99842.25;5019184;28;20200;-74
2022/02/20 03:11:53;;;;;;;4.43;1.43;;;;;;;1.38;100.00;99830.25;5035587;28;20208;-74
2022/02/20 03:14:25;;;;;;;2.80;1.03;;;;;;;1.39;100.00;99833.66;5024382;28;20783;-73
2022/02/20 03:16:53;;;;;;;2.80;1.20;;;;;;;1.40;100.00;99825.13;5023279;28;20204;-72
2022/02/20 03:19:20;;;;;;;5.93;1.27;;;;;;;1.39;100.00;99819.13;5023070;28;20294;-73
2022/02/20 03:21:46;;;;;;;2.53;1.13;;;;;;;1.41;100.00;99816.56;5020437;28;20216;-74
2022/02/20 03:24:18;;;;;;;1.87;1.20;;;;;;;1.39;100.00;99813.13;5020932;28;20204;-74
2022/02/20 03:26:47;;;;;;;2.47;1.20;;;;;;;1.40;100.00;99820.81;5021263;28;20192;-73
2022/02/20 03:29:16;;;;;;;3.73;1.20;;;;;;;1.40;100.00;99810.53;5016619;28;20193;-73
2022/02/20 03:31:43;;;;;;;3.90;1.40;;;;;;;1.40;100.00;99807.97;5016582;28;20602;-73
2022/02/20 03:34:10;;;;;;;3.83;1.10;;;;;;;1.41;100.00;99808.84;5019208;28;20223;-74
2022/02/20 03:36:37;;;;;;;1.37;0.90;;;;;;;1.41;100.00;99811.44;5020348;28;20207;-78
2022/02/20 03:39:18;;;;;;;2.53;1.00;;;;;;;1.42;100.00;99800.28;5019996;28;20664;-73
2022/02/20 03:41:44;;;;;;;2.30;1.00;;;;;;;1.41;100.00;99801.16;5024610;28;20227;-73
2022/02/20 03:44:24;;;;;;;1.37;1.20;;;;;;;1.41;100.00;99798.59;5015908;28;20772;-73
2022/02/20 03:47:05;;;;;;;5.27;1.20;;;;;;;1.39;100.00;99795.13;5020215;28;20262;-74
2022/02/20 03:49:32;;;;;;;1.97;1.07;;;;;;;1.39;100.00;99788.31;5033485;28;20247;-74
2022/02/20 03:52:19;;;;;;;4.27;1.40;;;;;;;1.43;100.00;99787.44;5023967;28;20198;-74
2022/02/20 03:54:48;;;;;;;2.07;1.10;;;;;;;1.40;100.00;99786.59;5017796;28;22083;-74
2022/02/20 03:57:15;;;;;;;3.60;1.47;;;;;;;1.44;100.00;99785.72;5016515;28;20986;-72
2022/02/20 04:00:03;;;;;;;2.40;1.00;;;;;;;1.43;100.00;99786.59;5015287;28;20368;-74
2022/02/20 04:02:31;;;;;;;2.00;1.00;;;;;;;1.48;100.00;99795.97;5018618;28;20219;-73
2022/02/20 04:04:58;;;;;;;1.93;1.10;;;;;;;1.46;100.00;99778.84;5023387;28;20231;-74
2022/02/20 04:07:24;;;;;;;1.77;1.03;;;;;;;1.46;100.00;99787.44;5018668;28;20582;-74
2022/02/20 04:09:51;;;;;;;3.97;1.20;;;;;;;1.47;100.00;99785.72;5021732;28;20273;-74
2022/02/20 04:12:17;;;;;;;4.13;1.53;;;;;;;1.47;100.00;99785.72;5021315;28;20204;-74
2022/02/20 04:14:46;;;;;;;3.60;1.40;;;;;;;1.49;100.00;99787.41;5020029;28;20722;-74
2022/02/20 04:17:14;;;;;;;2.10;1.20;;;;;;;1.47;100.00;99781.41;5019806;28;20295;-74
2022/02/20 04:19:44;;;;;;;2.83;1.10;;;;;;;1.49;100.00;99787.41;5022293;28;22268;-74
2022/02/20 04:22:10;;;;;;;4.70;1.20;;;;;;;1.47;100.00;99780.56;5018923;28;20196;-74
2022/02/20 04:24:36;;;;;;;3.10;1.20;;;;;;;1.45;100.00;99780.56;5023587;28;21318;-74
2022/02/20 04:27:09;;;;;;;2.20;1.20;;;;;;;1.47;100.00;99778.84;5017572;28;20216;-73
2022/02/20 04:29:41;;;;;;;2.10;1.20;;;;;;;1.48;100.00;99777.16;5021823;28;20287;-74
2022/02/20 04:32:08;;;;;;;2.47;1.10;;;;;;;1.50;100.00;99775.44;5018324;28;20200;-74
2022/02/20 04:34:36;;;;;;;3.60;1.30;;;;;;;1.49;100.00;99774.56;5023481;28;20764;-74
2022/02/20 04:37:03;;;;;;;1.80;1.17;;;;;;;1.53;100.00;99775.44;5021958;28;20744;-75
2022/02/20 04:39:31;;;;;;;3.27;1.57;;;;;;;1.52;100.00;99766.84;5018890;28;20200;-74
2022/02/20 04:42:00;;;;;;;4.37;1.43;;;;;;;1.56;100.00;99769.41;5023613;28;20270;-74
2022/02/20 04:44:38;;;;;;;1.63;1.20;;;;;;;1.58;100.00;99772.81;5018432;28;20236;-74
2022/02/20 04:47:06;;;;;;;2.97;1.10;;;;;;;1.60;100.00;99769.41;5019976;28;20196;-74
2022/02/20 04:49:35;;;;;;;1.93;1.03;;;;;;;1.60;100.00;99771.97;5020157;28;20292;-71
2022/02/20 04:52:16;;;;;;;3.13;1.10;;;;;;;1.64;100.00;99775.41;5018422;28;20208;-72
2022/02/20 04:55:03;;;;;;;2.30;0.90;;;;;;;1.65;100.00;99777.09;5019939;28;20824;-79
2022/02/20 04:57:33;;;;;;;1.47;0.97;;;;;;;1.66;100.00;99771.94;5025289;28;20261;-75
2022/02/20 04:59:59;;;;;;;1.03;0.90;;;;;;;1.69;100.00;99778.81;5021874;28;20216;-73
2022/02/20 05:02:37;;;;;;;1.97;1.00;;;;;;;1.72;100.00;99778.78;5018566;28;20208;-73
2022/02/20 05:05:07;;;;;;;2.50;1.00;;;;;;;1.74;100.00;99771.06;5014304;28;20219;-73
2022/02/20 05:07:34;;;;;;;1.73;1.50;;;;;;;1.78;100.00;99775.34;5015075;28;20966;-74
2022/02/20 05:10:01;;;;;;;0.80;0.80;;;;;;;1.78;100.00;99778.75;5018096;28;20248;-74
2022/02/20 05:12:28;;;;;;;1.03;0.93;;;;;;;1.82;100.00;99787.31;5012484;28;20622;-74
2022/02/20 05:14:54;;;;;;;1.10;1.00;;;;;;;1.84;100.00;99783.88;5037727;28;20257;-75
2022/02/20 05:17:28;;;;;;;1.57;1.10;;;;;;;1.86;100.00;99779.56;5016860;28;20283;-74
2022/02/20 05:19:59;;;;;;;0.97;0.90;;;;;;;1.91;100.00;99787.28;5025995;28;20701;-74
2022/02/20 05:22:27;;;;;;;3.33;1.10;;;;;;;1.91;100.00;99787.28;5021783;28;20468;-74
2022/02/20 05:24:57;;;;;;;3.07;1.20;;;;;;;1.93;100.00;99789.84;5020591;28;20199;-75
2022/02/20 05:27:24;;;;;;;3.00;1.20;;;;;;;1.96;100.00;99797.56;5021047;28;20953;-75
2022/02/20 05:29:54;;;;;;;1.73;1.03;;;;;;;1.98;100.00;99796.66;5021174;28;20228;-74
2022/02/20 05:32:24;;;;;;;2.73;1.13;;;;;;;2.00;100.00;99789.78;5020480;28;20554;-76
2022/02/20 05:35:00;;;;;;;1.87;1.10;;;;;;;2.02;100.00;99792.38;5027579;28;20588;-74
2022/02/20 05:37:30;;;;;;;3.57;0.97;;;;;;;2.05;100.00;99794.94;5025253;28;20604;-74
2022/02/20 05:39:58;;;;;;;1.40;1.00;;;;;;;2.07;100.00;99796.63;5022723;28;20265;-74
2022/02/20 05:42:25;;;;;;;1.07;0.93;;;;;;;2.09;100.00;99794.03;5018342;28;20391;-72
2022/02/20 05:45:01;;;;;;;2.50;1.17;;;;;;;2.11;100.00;99801.75;5019428;28;20203;-74
2022/02/20 05:47:27;;;;;;;1.60;1.10;;;;;;;2.12;100.00;99794.03;5016093;28;20271;-74
2022/02/20 05:49:54;;;;;;;3.30;1.10;;;;;;;2.12;100.00;99803.47;5024787;28;20250;-75
2022/02/20 05:52:20;;;;;;;3.47;1.30;;;;;;;2.13;100.00;99806.03;5025393;28;20212;-74
2022/02/20 05:54:49;;;;;;;1.07;1.07;;;;;;;2.14;100.00;99810.31;5022433;28;20222;-74
2022/02/20 05:57:16;;;;;;;0.90;0.90;;;;;;;2.14;100.00;99825.75;5020481;28;20200;-74
2022/02/20 05:59:56;;;;;;;2.03;1.33;;;;;;;2.17;100.00;99820.59;5022745;28;20720;-74
2022/02/20 06:02:23;;;;;;;2.83;1.40;;;;;;;2.19;100.00;99821.44;5023594;28;20285;-74
2022/02/20 06:04:52;;;;;;;1.80;1.30;;;;;;;2.23;100.00;99824.84;5026158;28;20200;-75
2022/02/20 06:07:38;;;;;;;4.40;1.30;;;;;;;2.25;100.00;99830.84;5018061;28;20294;-74
2022/02/20 06:10:24;;;;;;;3.20;1.50;;;;;;;2.30;100.00;99833.38;5024539;28;20316;-74
2022/02/20 06:13:17;;;;;;;1.60;1.50;;;;;;;2.31;100.00;99835.97;5008814;28;20213;-74
2022/02/20 06:16:01;;;;;;;1.57;1.40;;;;;;;2.34;100.00;99838.53;5018105;28;20235;-74
2022/02/20 06:18:40;;;;;;;2.70;1.40;;;;;;;2.39;100.00;99843.63;5020713;28;20225;-74
2022/02/20 06:21:22;;;;;;;3.17;1.50;;;;;;;2.44;100.00;99853.03;5023841;28;20235;-74
2022/02/20 06:24:13;;;;;;;1.63;1.50;;;;;;;2.47;100.00;99859.88;5018393;28;20207;-74
2022/02/20 06:27:01;;;;;;;2.63;1.60;;;;;;;2.52;100.00;99862.44;5019364;28;20208;-74
2022/02/20 06:29:27;;;;;;;1.60;1.43;;;;;;;2.54;100.00;99863.28;5018517;28;20188;-73
2022/02/20 06:31:54;;;;;;;3.73;1.50;;;;;;;2.56;100.00;99867.56;5015306;28;20847;-74
2022/02/20 06:34:20;;;;;;;4.73;1.83;;;;;;;2.60;100.00;99882.13;5023454;28;20247;-74
2022/02/20 06:36:47;;;;;;;1.87;1.50;;;;;;;2.63;100.00;99881.25;5022149;28;20211;-74
2022/02/20 06:39:13;;;;;;;1.50;1.40;;;;;;;2.65;100.00;99879.53;5020975;28;20209;-74
2022/02/20 06:41:40;;;;;;;3.03;1.70;;;;;;;2.68;100.00;99887.22;5018932;28;20235;-74
2022/02/20 06:44:08;;;;;;;2.70;1.70;;;;;;;2.71;100.00;99888.91;5020833;28;20215;-74
2022/02/20 06:46:52;;;;;;;3.90;1.50;;;;;;;2.74;100.00;99899.22;5020490;28;20218;-74
2022/02/20 06:49:42;;;;;;;2.40;1.40;;;;;;;2.80;100.00;99904.34;5015685;28;20236;-79
2022/02/20 06:52:27;;;;;;;4.30;1.60;;;;;;;2.81;100.00;99904.34;5021499;28;20219;-75
2022/02/20 06:55:12;;;;;;;2.67;1.90;;;;;;;2.84;100.00;99912.00;5018414;28;20215;-75
2022/02/20 06:57:47;;;;;;;2.70;1.50;;;;;;;2.86;100.00;99911.16;5018731;28;20201;-74
2022/02/20 07:00:17;;;;;;;4.43;1.93;;;;;;;2.88;100.00;99922.31;5020742;28;20598;-74
2022/02/20 07:02:44;;;;;;;2.67;1.80;;;;;;;2.92;100.00;99929.13;5017596;28;20558;-75
2022/02/20 07:05:10;;;;;;;3.33;2.30;;;;;;;2.95;100.00;99942.84;5019787;28;20225;-74
2022/02/20 07:07:38;;;;;;;4.73;2.27;;;;;;;2.98;100.00;99937.69;5019226;28;20728;-77
2022/02/20 07:10:07;;;;;;;2.73;2.27;;;;;;;3.01;100.00;99954.84;5019691;28;20215;-74
2022/02/20 07:12:33;;;;;;;3.00;2.40;;;;;;;3.08;100.00;99953.06;5021404;28;20203;-75
2022/02/20 07:15:00;;;;;;;2.93;2.47;;;;;;;3.11;100.00;99948.75;5017319;28;20207;-75
2022/02/20 07:17:27;;;;;;;2.97;2.53;;;;;;;3.13;100.00;99954.78;5020239;28;20208;-74
2022/02/20 07:19:54;;;;;;;4.80;2.50;;;;;;;3.16;100.00;99961.63;5020868;28;20228;-75
2022/02/20 07:22:20;;;;;;;4.73;2.83;;;;;;;3.19;100.00;99969.34;5017016;28;20214;-75
2022/02/20 07:24:47;;;;;;;6.37;2.90;;;;;;;3.22;100.00;99977.06;5016233;28;20230;-76
2022/02/20 07:27:13;;;;;;;5.80;2.70;;;;;;;3.27;100.00;99979.56;5019358;28;20200;-75
2022/02/20 07:29:40;;;;;;;4.57;2.77;;;;;;;3.30;100.00;99969.25;5018807;28;20613;-74
2022/02/20 07:32:08;;;;;;;4.27;2.80;;;;;;;3.33;100.00;99975.25;5021149;28;20569;-73
2022/02/20 07:34:35;;;;;;;2.77;2.13;;;;;;;3.38;100.00;99988.13;5022063;28;20282;-74
2022/02/20 07:37:02;;;;;;;3.30;2.27;;;;;;;3.41;100.00;99985.50;5020998;28;20555;-74
2022/02/20 07:39:28;;;;;;;4.30;2.67;;;;;;;3.43;100.00;99978.63;5016130;28;20677;-75
2022/02/20 07:41:56;;;;;;;3.67;1.97;;;;;;;3.46;100.00;99994.06;5020839;28;20200;-77
2022/02/20 07:44:22;;;;;;;3.27;2.20;;;;;;;3.44;100.00;99995.78;5021505;28;20204;-75
2022/02/20 07:46:49;;;;;;;2.40;1.93;;;;;;;3.43;100.00;99996.66;5017738;28;20689;-74
2022/02/20 07:49:15;;;;;;;3.23;2.07;;;;;;;3.44;100.00;99994.94;5015097;28;20300;-78
2022/02/20 07:51:43;;;;;;;2.30;1.90;;;;;;;3.49;100.00;100013.81;5023181;28;20228;-75
2022/02/20 07:54:10;;;;;;;3.83;1.60;;;;;;;3.53;100.00;100007.75;5020979;28;20207;-75
2022/02/20 07:56:36;;;;;;;2.47;1.50;;;;;;;3.55;100.00;100014.63;5021350;28;20204;-74
2022/02/20 07:59:03;;;;;;;2.40;1.50;;;;;;;3.58;100.00;100019.75;5022707;28;20222;-72
2022/02/20 08:01:32;;;;;;;1.67;1.50;;;;;;;3.61;100.00;100013.72;5016253;28;20248;-75
2022/02/20 08:03:58;;;;;;;3.27;1.60;;;;;;;3.63;100.00;100029.19;5021903;28;20280;-73
2022/02/20 08:06:25;;;;;;;1.60;1.50;;;;;;;3.62;100.00;100032.63;5016542;28;20200;-75
2022/02/20 08:08:53;;;;;;;1.67;1.33;;;;;;;3.66;100.00;100042.03;5018794;28;20281;-74
2022/02/20 08:11:20;;;;;;;1.50;1.40;;;;;;;3.72;100.00;100042.84;5020343;28;20219;-75
2022/02/20 08:13:46;;;;;;;1.93;1.20;;;;;;;3.73;100.00;100046.28;5020537;28;20832;-73
2022/02/20 08:16:13;;;;;;;1.47;1.20;;;;;;;3.76;100.00;100044.56;5023832;28;20215;-74
2022/02/20 08:18:39;;;;;;;3.00;1.20;;;;;;;3.76;100.00;100054.00;5023514;28;20208;-75
2022/02/20 08:21:05;;;;;;;1.30;1.20;;;;;;;3.79;100.00;100059.13;5018406;28;20314;-72
2022/02/20 08:23:32;;;;;;;1.37;1.10;;;;;;;3.82;100.00;100063.41;5019788;28;20366;-75
2022/02/20 08:26:00;;;;;;;1.37;1.00;;;;;;;3.81;100.00;100065.13;5018562;28;20204;-74
2022/02/20 08:28:26;;;;;;;1.33;1.10;;;;;;;3.79;100.00;100069.44;5018735;28;20250;-74
2022/02/20 08:30:53;;;;;;;1.10;1.00;;;;;;;3.81;100.00;100075.44;5020531;28;20233;-74
2022/02/20 08:33:19;;;;;;;1.23;1.13;;;;;;;3.88;100.00;100073.69;5019003;28;20208;-74
2022/02/20 08:35:46;;;;;;;1.23;1.13;;;;;;;3.88;100.00;100076.25;5016355;28;20212;-75
2022/02/20 08:38:14;;;;;;;1.43;1.33;;;;;;;3.87;100.00;100082.28;5022111;28;20208;-73
2022/02/20 08:40:43;;;;;;;1.90;0.93;;;;;;;3.87;100.00;100085.72;5018114;28;20585;-73
2022/02/20 08:43:10;;;;;;;1.00;0.93;;;;;;;3.93;100.00;100089.97;5018360;28;20209;-74
2022/02/20 08:45:37;;;;;;;1.20;0.80;;;;;;;3.96;100.00;100089.97;5020169;28;20214;-76
2022/02/20 08:48:04;;;;;;;1.10;1.00;;;;;;;3.97;100.00;100096.81;5020547;28;20197;-75
2022/02/20 08:50:31;;;;;;;1.20;1.10;;;;;;;3.94;100.00;100099.41;5018151;28;20598;-73
2022/02/20 08:52:58;;;;;;;2.00;1.50;;;;;;;4.00;100.00;100106.28;5021271;28;20192;-74
2022/02/20 08:55:24;;;;;;;1.20;1.10;;;;;;;3.97;100.00;100099.41;5026195;28;20192;-74
2022/02/20 08:57:51;;;;;;;1.73;1.30;;;;;;;3.97;100.00;100108.03;5019687;28;20274;-75
2022/02/20 09:00:18;;;;;;;1.20;1.10;;;;;;;3.97;100.00;100101.97;5021090;28;20330;-73
2022/02/20 09:02:45;;;;;;;1.77;1.40;;;;;;;3.95;100.00;100104.56;5019854;28;20210;-74
2022/02/20 09:05:11;;;;;;;0.87;0.87;;;;;;;3.91;100.00;100114.94;5022361;28;20262;-77
2022/02/20 09:07:38;;;;;;;2.03;1.00;;;;;;;3.88;100.00;100115.78;5021958;28;20239;-75
2022/02/20 09:10:08;;;;;;;1.17;0.90;;;;;;;3.81;100.00;100111.56;5022150;28;20207;-75
2022/02/20 09:12:34;;;;;;;0.97;0.87;;;;;;;3.78;100.00;100114.13;5022150;28;20206;-74
2022/02/20 09:15:01;;;;;;;1.30;1.00;;;;;;;3.78;100.00;100121.88;5018915;28;20199;-74
2022/02/20 09:17:29;;;;;;;1.00;1.00;;;;;;;3.81;100.00;100121.03;5022643;28;20199;-74
2022/02/20 09:19:55;;;;;;;3.00;1.93;;;;;;;3.81;100.00;100126.19;5019102;28;20232;-75
2022/02/20 09:22:22;;;;;;;6.83;5.57;;;;;;;3.77;100.00;100122.75;5023633;28;20716;-74
2022/02/20 09:24:48;;;;;;;8.83;4.80;;;;;;;3.87;100.00;100115.81;5022549;28;20203;-73
2022/02/20 09:27:15;;;;;;;2.83;2.50;;;;;;;3.96;100.00;100119.19;5020335;28;20298;-72
2022/02/20 09:29:41;;;;;;;2.13;1.93;;;;;;;4.10;100.00;100125.97;5021908;28;20192;-73
2022/02/20 09:32:09;;;;;;;2.30;1.93;;;;;;;4.12;100.00;100127.66;5019148;28;20306;-72
2022/02/20 09:34:37;;;;;;;2.37;2.17;;;;;;;4.11;100.00;100132.84;5018040;28;20821;-73
2022/02/20 09:37:04;;;;;;;2.70;2.50;;;;;;;4.08;100.00;100138.91;5017184;28;20208;-74
2022/02/20 09:39:31;;;;;;;2.40;2.13;;;;;;;4.09;100.00;100132.84;5020772;28;20212;-73
2022/02/20 09:41:58;;;;;;;2.37;2.00;;;;;;;4.13;100.00;100125.94;5016357;28;20207;-73
2022/02/20 09:44:24;;;;;;;2.00;1.80;;;;;;;4.23;100.00;100130.16;5023036;28;20211;-74
2022/02/20 09:46:51;;;;;;;1.80;1.67;;;;;;;4.25;100.00;100133.59;5021846;28;20597;-72
2022/02/20 09:49:17;;;;;;;2.43;2.23;;;;;;;4.29;100.00;100129.25;5022114;28;20215;-73
2022/02/20 09:51:45;;;;;;;2.40;2.00;;;;;;;4.42;100.00;100130.03;5018034;28;20583;-73
2022/02/20 09:54:12;;;;;;;2.97;2.07;;;;;;;4.53;100.00;100130.78;5024612;28;20194;-74
2022/02/20 09:56:39;;;;;;;2.40;2.20;;;;;;;4.58;100.00;100130.75;5010237;28;20197;-74
2022/02/20 09:59:05;;;;;;;3.33;2.20;;;;;;;4.68;100.00;100127.22;5027093;28;20200;-74
2022/02/20 10:01:32;;;;;;;2.40;2.10;;;;;;;4.83;100.00;100128.75;5018850;28;20740;-74
2022/02/20 10:03:58;;;;;;;2.53;2.17;;;;;;;4.96;100.00;100129.47;5019836;28;20614;-74
2022/02/20 10:06:26;;;;;;;2.70;1.97;;;;;;;5.09;100.00;100118.13;5024139;28;20207;-74
2022/02/20 10:08:56;;;;;;;2.90;2.10;;;;;;;5.22;100.00;100118.84;5038916;28;20218;-73
2022/02/20 10:11:24;;;;;;;2.17;1.97;;;;;;;5.21;100.00;100125.75;5018515;28;20224;-74
2022/02/20 10:13:51;;;;;;;2.07;1.67;;;;;;;5.29;100.00;100120.47;5018919;28;20212;-75
2022/02/20 10:16:23;;;;;;;3.70;2.10;;;;;;;5.39;100.00;100126.41;5019435;28;20432;-74
2022/02/20 10:19:03;;;;;;;4.50;2.20;;;;;;;5.42;100.00;100124.63;5020861;28;20215;-74
2022/02/20 10:21:50;;;;;;;4.63;2.60;;;;;;;5.48;100.00;100124.53;5020734;28;20431;-74
2022/02/20 10:24:18;;;;;;;3.87;2.53;;;;;;;5.50;100.00;100133.16;5022565;28;20205;-74
2022/02/20 10:27:22;;;;;;;2.63;2.20;;;;;;;5.60;100.00;100120.94;5024114;28;20910;-74
2022/02/20 10:30:12;;;;;;;2.90;2.47;;;;;;;5.61;100.00;100129.53;5021256;28;20218;-74
2022/02/20 10:32:40;;;;;;;7.87;3.67;;;;;;;5.63;100.00;100130.41;5021727;28;20262;-72
2022/02/20 10:35:07;;;;;;;5.90;2.70;;;;;;;5.76;100.00;100131.91;5022007;28;21865;-76
2022/02/20 10:37:34;;;;;;;4.90;2.60;;;;;;;5.85;100.00;100118.84;5022074;28;20211;-72
2022/02/20 10:40:02;;;;;;;5.07;2.80;;;;;;;5.93;100.00;100130.81;5018849;28;20224;-73
2022/02/20 10:42:28;;;;;;;5.20;2.70;;;;;;;5.91;100.00;100122.22;5016860;28;20259;-74
2022/02/20 10:44:58;;;;;;;4.47;2.77;;;;;;;5.90;100.00;100123.97;5018341;28;20273;-72
2022/02/20 10:47:26;;;;;;;3.57;2.17;;;;;;;5.98;100.00;100131.63;5016089;28;20925;-77
2022/02/20 10:49:53;;;;;;;3.80;2.07;;;;;;;6.07;100.00;100127.19;5024693;28;20228;-74
2022/02/20 10:52:21;;;;;;;3.23;2.03;;;;;;;6.23;100.00;100132.97;5018243;28;20222;-78
2022/02/20 10:55:07;;;;;;;3.37;2.10;;;;;;;6.20;100.00;100134.75;5020531;28;20212;-73
2022/02/20 10:57:35;;;;;;;4.30;2.33;;;;;;;6.30;100.00;100122.50;5024090;28;20204;-74
2022/02/20 11:00:09;;;;;;;3.10;2.20;;;;;;;6.41;100.00;100118.84;5022422;28;20309;-74
2022/02/20 11:02:36;;;;;;;3.70;1.87;;;;;;;6.41;100.00;100123.19;5014934;28;20192;-72
2022/02/20 11:05:02;;;;;;;2.70;1.90;;;;;;;6.48;100.00;100126.53;5009183;28;20212;-74
2022/02/20 11:07:29;;;;;;;4.53;2.63;;;;;;;6.46;99.93;100118.78;5018505;28;20196;-74
2022/02/20 11:09:56;;;;;;;3.87;2.13;;;;;;;6.40;97.23;100118.88;5018032;28;20234;-77
2022/02/20 11:12:25;;;;;;;2.60;2.00;;;;;;;6.44;97.51;100117.97;5019996;28;20204;-74
2022/02/20 11:14:53;;;;;;;4.17;2.17;;;;;;;6.50;93.67;100115.25;5026458;28;20204;-74
2022/02/20 11:17:22;;;;;;;2.53;2.13;;;;;;;6.54;95.75;100100.50;5024925;28;20208;-74
2022/02/20 11:19:52;;;;;;;3.17;1.73;;;;;;;6.51;95.08;100095.38;5014841;28;20232;-73
2022/02/20 11:22:21;;;;;;;2.87;2.20;;;;;;;6.50;94.38;100089.34;5016336;28;20272;-73
2022/02/20 11:24:50;;;;;;;2.67;2.47;;;;;;;6.52;92.75;100091.91;5022153;28;20207;-73
2022/02/20 11:27:19;;;;;;;2.53;2.27;;;;;;;6.51;92.89;100088.47;5021556;28;20777;-74
2022/02/20 11:29:47;;;;;;;1.87;1.77;;;;;;;6.48;90.21;100085.94;5021216;28;20311;-74
2022/02/20 11:32:15;;;;;;;4.57;2.27;;;;;;;6.50;92.58;100073.81;5025007;28;20212;-74
2022/02/20 11:34:43;;;;;;;2.40;2.20;;;;;;;6.52;92.05;100066.88;5020157;28;20214;-73
2022/02/20 11:37:10;;;;;;;3.20;2.20;;;;;;;6.49;91.36;100069.53;5023245;28;20218;-74
2022/02/20 11:39:37;;;;;;;3.30;1.70;;;;;;;6.46;89.42;100069.59;5017105;28;20188;-74
2022/02/20 11:42:09;;;;;;;5.40;2.10;;;;;;;6.45;91.13;100062.69;5022270;28;20242;-75